Time;durP1;ratioP1;P1;durP2;ratioP2;P2;SDS_P1;SDS_P2;PMS_P1;PMS_P2;Temp;Humidity;BMP_temperature;BMP_pressure;BME280_temperature;BME280_humidity;BME280_pressure;Samples;Min_cycle;Max_cycle;Signal;HPM_P1;HPM_P2
2023/07/13 00:04:17;;;;;;;5.90;4.60;;;26.60;61.90;;;;;;222385;1247;22517;-50
2023/07/13 00:09:22;;;;;;;5.10;4.70;;;26.50;62.50;;;;;;222357;1254;24339;-48
2023/07/13 00:14:28;;;;;;;5.30;4.50;;;26.50;62.80;;;;;;222357;1264;22527;-47
2023/07/13 00:19:32;;;;;;;5.00;4.50;;;26.50;63.10;;;;;;222401;1254;22782;-45
2023/07/13 00:24:41;;;;;;;5.90;4.70;;;26.50;62.60;;;;;;222387;1250;22775;-46
2023/07/13 00:29:45;;;;;;;6.80;4.30;;;26.50;63.20;;;;;;222436;1250;25242;-47
2023/07/13 00:34:49;;;;;;;5.00;4.60;;;26.50;63.00;;;;;;222496;1263;22517;-45
2023/07/13 00:39:54;;;;;;;5.00;4.50;;;26.50;62.70;;;;;;222577;1264;22706;-46
2023/07/13 00:45:12;;;;;;;4.90;4.30;;;26.50;63.10;;;;;;222185;1259;24047;-45
2023/07/13 00:50:19;;;;;;;5.10;3.80;;;26.50;63.30;;;;;;230682;1260;22321;-46
2023/07/13 00:55:23;;;;;;;5.00;4.50;;;26.60;62.60;;;;;;230383;1264;22924;-43
2023/07/13 01:00:29;;;;;;;6.30;4.70;;;26.70;62.00;;;;;;225035;1249;22586;-46
2023/07/13 01:05:35;;;;;;;4.90;4.30;;;26.80;61.70;;;;;;222383;1252;24208;-45
2023/07/13 01:10:39;;;;;;;4.60;4.10;;;26.60;62.30;;;;;;222366;1247;25313;-47
2023/07/13 01:15:48;;;;;;;6.30;4.30;;;26.50;62.50;;;;;;221994;1247;25221;-45
2023/07/13 01:20:57;;;;;;;4.10;3.80;;;26.40;62.70;;;;;;222271;1250;22619;-44
2023/07/13 01:26:01;;;;;;;6.70;5.70;;;26.40;62.10;;;;;;222282;1260;25612;-44
2023/07/13 01:31:06;;;;;;;7.70;6.20;;;26.40;62.20;;;;;;222376;1250;22525;-47
2023/07/13 01:36:11;;;;;;;6.50;5.60;;;26.40;62.70;;;;;;222261;1253;25262;-44
2023/07/13 01:41:16;;;;;;;6.10;5.00;;;26.30;62.60;;;;;;222343;1253;24379;-46
2023/07/13 01:46:22;;;;;;;5.90;5.40;;;26.40;62.40;;;;;;222404;1263;23906;-47
2023/07/13 01:51:27;;;;;;;5.20;4.70;;;26.40;62.50;;;;;;222101;1246;25293;-44
2023/07/13 01:56:31;;;;;;;6.50;5.80;;;26.40;62.50;;;;;;222145;1248;22550;-46
2023/07/13 02:01:36;;;;;;;5.20;4.70;;;26.40;63.00;;;;;;222047;1262;22767;-45
2023/07/13 02:06:40;;;;;;;4.90;4.50;;;26.30;62.40;;;;;;222327;1255;25591;-44
2023/07/13 02:11:45;;;;;;;5.00;4.50;;;26.30;62.60;;;;;;222356;1256;22561;-46
2023/07/13 02:16:49;;;;;;;6.50;4.40;;;26.10;63.00;;;;;;222129;1255;199816;-45
2023/07/13 02:21:53;;;;;;;8.00;4.70;;;26.10;63.00;;;;;;222432;1263;22558;-46
2023/07/13 02:26:58;;;;;;;7.50;4.80;;;26.10;63.40;;;;;;222407;1263;24161;-46
2023/07/13 02:32:02;;;;;;;6.60;5.10;;;26.10;63.00;;;;;;222321;1263;23658;-46
2023/07/13 02:37:06;;;;;;;9.60;5.30;;;26.10;63.20;;;;;;222295;1263;22627;-44
2023/07/13 02:42:11;;;;;;;6.70;5.30;;;26.00;63.10;;;;;;230516;1263;22213;-44
2023/07/13 02:47:15;;;;;;;5.30;4.70;;;26.10;62.40;;;;;;230267;1260;22162;-44
2023/07/13 02:52:19;;;;;;;7.10;4.80;;;26.30;62.30;;;;;;228014;1253;23213;-45
2023/07/13 02:57:24;;;;;;;6.70;5.00;;;26.30;61.90;;;;;;222624;1254;24180;-45
2023/07/13 03:02:28;;;;;;;4.90;4.50;;;26.20;62.00;;;;;;222172;1260;25336;-45
2023/07/13 03:07:32;;;;;;;6.10;4.70;;;26.10;62.20;;;;;;222175;1256;25355;-46
2023/07/13 03:12:37;;;;;;;5.20;4.70;;;26.10;62.40;;;;;;222527;1263;24267;-43
2023/07/13 03:17:44;;;;;;;7.50;4.90;;;26.10;62.20;;;;;;222711;1264;22498;-44
2023/07/13 03:22:49;;;;;;;5.00;4.50;;;26.10;62.00;;;;;;222677;1254;25390;-46
2023/07/13 03:27:53;;;;;;;5.00;4.50;;;26.00;62.00;;;;;;222666;1254;22515;-45
2023/07/13 03:32:58;;;;;;;6.90;4.30;;;25.90;62.20;;;;;;222424;1257;25408;-46
2023/07/13 03:38:02;;;;;;;5.90;4.80;;;25.90;62.30;;;;;;222394;1264;22510;-48
2023/07/13 03:43:07;;;;;;;5.20;4.70;;;25.80;62.70;;;;;;222732;1254;25361;-43
2023/07/13 03:48:11;;;;;;;7.00;5.10;;;25.80;62.50;;;;;;222707;1256;22503;-48
2023/07/13 03:53:16;;;;;;;6.40;5.10;;;25.80;62.50;;;;;;222423;1266;22511;-47
2023/07/13 03:58:34;;;;;;;5.60;4.70;;;25.80;62.60;;;;;;222267;1264;22531;-45
2023/07/13 04:03:46;;;;;;;6.20;4.90;;;25.90;61.80;;;;;;222638;1254;22619;-45
2023/07/13 04:08:53;;;;;;;7.80;4.80;;;25.90;61.80;;;;;;222511;1254;22514;-48
2023/07/13 04:13:58;;;;;;;4.80;4.30;;;25.90;62.60;;;;;;222537;1254;25302;-45
2023/07/13 04:19:02;;;;;;;5.90;4.90;;;25.90;62.50;;;;;;222545;1256;22526;-46
2023/07/13 04:24:07;;;;;;;5.00;4.50;;;25.80;62.30;;;;;;222481;1256;22586;-47
2023/07/13 04:29:13;;;;;;;6.40;4.80;;;25.80;63.30;;;;;;222392;1260;22507;-46
2023/07/13 04:34:17;;;;;;;5.40;4.70;;;25.70;63.00;;;;;;222406;1260;24218;-43
2023/07/13 04:39:22;;;;;;;5.10;4.50;;;25.50;63.50;;;;;;224727;1253;24286;-45
2023/07/13 04:44:26;;;;;;;6.30;4.00;;;25.30;62.30;;;;;;227328;1268;22505;-45
2023/07/13 04:49:30;;;;;;;8.80;3.80;;;25.20;61.50;;;;;;222321;1253;25338;-45
2023/07/13 04:54:35;;;;;;;6.90;3.00;;;25.10;61.10;;;;;;222460;1264;22782;-44
2023/07/13 04:59:39;;;;;;;6.30;3.00;;;25.00;60.90;;;;;;222657;1264;25300;-46
2023/07/13 05:04:47;;;;;;;4.70;3.20;;;24.90;61.00;;;;;;222420;1265;24307;-46
2023/07/13 05:09:51;;;;;;;2.90;2.40;;;24.90;60.80;;;;;;222674;1260;22620;-46
2023/07/13 05:14:56;;;;;;;11.50;2.90;;;25.00;60.50;;;;;;222530;1265;25479;-44
2023/07/13 05:20:00;;;;;;;5.00;2.40;;;24.90;59.90;;;;;;222518;1255;24361;-45
2023/07/13 05:25:06;;;;;;;7.80;2.20;;;25.10;59.60;;;;;;222273;1260;23860;-47
2023/07/13 05:30:12;;;;;;;2.30;2.10;;;25.10;59.40;;;;;;222364;1266;22587;-48
2023/07/13 05:35:16;;;;;;;6.60;2.40;;;25.20;60.00;;;;;;222248;1268;24736;-45
2023/07/13 05:40:20;;;;;;;2.10;1.90;;;25.20;59.40;;;;;;222460;1263;25300;-45
2023/07/13 05:45:25;;;;;;;4.30;1.90;;;25.10;59.00;;;;;;222577;1261;22503;-45
2023/07/13 05:50:30;;;;;;;3.30;1.70;;;25.10;59.00;;;;;;222631;1260;22772;-46
2023/07/13 05:55:34;;;;;;;3.10;1.90;;;25.20;59.20;;;;;;222506;1260;22654;-46
2023/07/13 06:00:39;;;;;;;2.80;2.00;;;25.10;59.20;;;;;;222681;1254;25456;-46
2023/07/13 06:05:43;;;;;;;4.10;1.70;;;25.20;59.10;;;;;;222526;1264;22517;-45
2023/07/13 06:10:48;;;;;;;5.70;1.70;;;25.20;59.90;;;;;;222525;1266;24256;-46
2023/07/13 06:15:52;;;;;;;3.30;1.90;;;25.20;59.10;;;;;;222154;1252;23976;-45
2023/07/13 06:20:56;;;;;;;2.70;1.50;;;25.20;59.50;;;;;;222480;1253;25255;-47
2023/07/13 06:26:01;;;;;;;5.30;1.50;;;25.30;59.20;;;;;;222208;1254;24245;-46
2023/07/13 06:31:11;;;;;;;2.00;1.80;;;25.40;59.50;;;;;;222506;1257;22616;-46
2023/07/13 06:36:16;;;;;;;3.70;1.90;;;25.40;59.20;;;;;;221918;1254;22528;-45
2023/07/13 06:41:22;;;;;;;3.50;1.90;;;25.40;59.60;;;;;;222139;1264;25664;-47
2023/07/13 06:46:28;;;;;;;4.90;1.50;;;25.30;59.70;;;;;;222179;1268;25593;-45
2023/07/13 06:51:33;;;;;;;3.00;1.60;;;25.40;60.00;;;;;;222236;1255;24264;-46
2023/07/13 06:56:37;;;;;;;3.00;1.90;;;25.40;60.10;;;;;;221836;1253;24205;-44
2023/07/13 07:01:41;;;;;;;5.30;2.00;;;25.40;60.50;;;;;;221950;1264;24230;-44
2023/07/13 07:06:46;;;;;;;3.80;1.80;;;25.20;60.90;;;;;;222050;1266;24317;-45
2023/07/13 07:11:50;;;;;;;5.20;2.00;;;25.30;61.20;;;;;;222380;1260;25297;-43
2023/07/13 07:17:06;;;;;;;5.00;2.00;;;25.30;61.60;;;;;;222243;1254;22561;-44
2023/07/13 07:22:10;;;;;;;9.00;2.40;;;25.10;61.70;;;;;;222364;1263;22495;-44
2023/07/13 07:27:14;;;;;;;4.60;2.20;;;25.10;62.70;;;;;;222100;1268;24194;-42
2023/07/13 07:32:22;;;;;;;4.70;2.10;;;25.00;62.50;;;;;;222430;1254;24282;-45
2023/07/13 07:37:28;;;;;;;4.00;2.20;;;24.70;63.10;;;;;;222749;1260;22514;-43
2023/07/13 07:42:36;;;;;;;11.30;2.40;;;25.00;62.60;;;;;;222138;1259;22501;-43
2023/07/13 07:47:40;;;;;;;6.10;2.40;;;25.10;62.50;;;;;;222211;1268;23424;-44
2023/07/13 07:52:44;;;;;;;4.30;2.30;;;25.20;62.20;;;;;;222637;1267;25429;-46
2023/07/13 07:57:49;;;;;;;3.40;2.20;;;25.20;62.80;;;;;;222525;1260;25255;-44
2023/07/13 08:02:55;;;;;;;6.90;2.40;;;25.00;62.80;;;;;;222430;1268;25479;-45
2023/07/13 08:08:20;;;;;;;5.30;2.10;;;24.90;63.30;;;;;;222254;1254;22600;-46
2023/07/13 08:13:24;;;;;;;3.50;2.20;;;24.90;63.10;;;;;;222261;1268;22522;-44
2023/07/13 08:18:28;;;;;;;6.40;2.40;;;25.10;62.80;;;;;;222304;1263;24019;-44
2023/07/13 08:23:32;;;;;;;3.10;2.20;;;25.10;63.10;;;;;;223050;1268;22521;-43
2023/07/13 08:28:36;;;;;;;5.20;2.30;;;25.10;62.90;;;;;;222523;1256;22513;-45
2023/07/13 08:33:41;;;;;;;2.90;2.30;;;25.20;63.20;;;;;;222579;1267;23918;-45
2023/07/13 08:38:45;;;;;;;3.80;2.30;;;25.20;63.20;;;;;;222443;1268;22497;-45
2023/07/13 08:43:53;;;;;;;2.60;2.10;;;25.20;63.60;;;;;;222482;1261;22531;-43
2023/07/13 08:49:03;;;;;;;2.00;1.80;;;25.10;64.10;;;;;;222647;1253;24060;-44
2023/07/13 08:54:26;;;;;;;2.50;2.30;;;25.20;63.70;;;;;;222443;1261;25686;-44
2023/07/13 08:59:34;;;;;;;7.90;2.40;;;25.20;63.70;;;;;;222291;1268;24073;-44
2023/07/13 09:05:03;;;;;;;3.60;2.30;;;25.30;63.80;;;;;;222370;1262;24048;-44
2023/07/13 09:10:15;;;;;;;4.30;2.40;;;25.20;63.70;;;;;;222287;1267;22613;-45
2023/07/13 09:15:22;;;;;;;4.30;2.20;;;25.20;63.60;;;;;;222337;1260;22507;-44
2023/07/13 09:20:38;;;;;;;6.10;2.60;;;25.20;64.00;;;;;;222338;1266;23897;-44
2023/07/13 09:25:47;;;;;;;2.60;2.40;;;25.10;64.20;;;;;;222289;1261;24335;-44
2023/07/13 09:31:01;;;;;;;2.80;2.50;;;25.10;64.10;;;;;;222409;1260;22524;-45
2023/07/13 09:36:23;;;;;;;2.60;2.40;;;25.10;63.70;;;;;;222534;1260;22591;-46
2023/07/13 09:41:46;;;;;;;4.80;2.80;;;25.00;63.60;;;;;;222364;1254;22573;-45
2023/07/13 09:46:55;;;;;;;4.50;2.30;;;24.90;64.60;;;;;;222530;1263;22523;-44
2023/07/13 09:52:11;;;;;;;3.00;2.30;;;24.90;64.40;;;;;;222449;1263;22570;-46
2023/07/13 09:57:18;;;;;;;3.70;2.40;;;25.00;64.50;;;;;;222502;1264;24225;-44
2023/07/13 10:02:28;;;;;;;4.60;2.80;;;25.00;64.20;;;;;;222529;1263;26273;-46
2023/07/13 10:07:39;;;;;;;3.50;2.20;;;25.20;63.90;;;;;;222456;1257;24212;-43
2023/07/13 10:12:44;;;;;;;3.80;2.30;;;25.40;63.60;;;;;;222728;1261;24179;-43
2023/07/13 10:17:51;;;;;;;7.60;2.40;;;25.60;63.20;;;;;;222587;1261;22721;-45
2023/07/13 10:23:10;;;;;;;2.40;2.10;;;25.70;63.40;;;;;;222358;1256;23161;-49
2023/07/13 10:28:31;;;;;;;4.20;2.40;;;25.90;62.40;;;;;;222507;1266;25308;-44
2023/07/13 10:33:35;;;;;;;3.60;2.20;;;25.80;62.40;;;;;;222626;1261;22518;-45
2023/07/13 10:38:40;;;;;;;4.20;2.10;;;25.90;62.30;;;;;;222494;1254;25217;-44
2023/07/13 10:43:52;;;;;;;3.60;2.10;;;25.90;61.80;;;;;;222426;1261;22510;-46
2023/07/13 10:49:07;;;;;;;3.80;2.00;;;26.00;61.00;;;;;;222536;1258;23898;-44
2023/07/13 10:54:16;;;;;;;3.90;2.30;;;26.00;61.70;;;;;;222413;1267;25582;-44
2023/07/13 10:59:27;;;;;;;3.10;2.10;;;26.00;61.50;;;;;;222506;1267;23357;-44
2023/07/13 11:04:53;;;;;;;4.70;2.10;;;26.00;61.30;;;;;;222508;1264;22522;-47
2023/07/13 11:10:06;;;;;;;5.30;2.00;;;26.10;61.30;;;;;;222462;1260;22976;-48
2023/07/13 11:15:12;;;;;;;3.40;1.90;;;26.10;61.50;;;;;;222412;1265;22585;-45
2023/07/13 11:20:16;;;;;;;1.80;1.50;;;26.10;61.50;;;;;;222516;1260;22564;-48
2023/07/13 11:25:26;;;;;;;3.10;1.90;;;26.10;61.40;;;;;;222767;1260;22759;-46
2023/07/13 11:30:30;;;;;;;1.50;1.40;;;26.20;60.60;;;;;;222540;1266;24253;-44
2023/07/13 11:35:38;;;;;;;4.70;2.00;;;26.20;60.60;;;;;;222597;1266;25323;-45
2023/07/13 11:40:45;;;;;;;3.20;1.80;;;26.00;60.60;;;;;;222754;1257;24260;-43
2023/07/13 11:45:56;;;;;;;2.30;1.90;;;26.00;60.50;;;;;;222592;1269;22528;-45
2023/07/13 11:51:05;;;;;;;3.60;1.90;;;26.00;60.20;;;;;;222578;1254;25288;-46
2023/07/13 11:56:09;;;;;;;2.90;1.50;;;26.10;60.20;;;;;;222458;1268;22524;-43
2023/07/13 12:01:20;;;;;;;3.50;1.90;;;26.20;60.60;;;;;;222362;1267;22629;-44
2023/07/13 12:06:30;;;;;;;2.60;1.80;;;26.20;60.00;;;;;;222550;1262;22517;-43
2023/07/13 12:11:37;;;;;;;2.90;1.80;;;26.30;60.70;;;;;;222495;1267;23968;-45
2023/07/13 12:16:46;;;;;;;2.40;1.80;;;26.20;60.50;;;;;;222359;1263;22511;-44
2023/07/13 12:21:53;;;;;;;4.30;2.30;;;26.20;60.10;;;;;;222638;1263;23674;-43
2023/07/13 12:27:04;;;;;;;3.20;1.70;;;26.10;60.00;;;;;;222319;1254;22514;-43
2023/07/13 12:32:18;;;;;;;3.90;1.60;;;26.20;59.60;;;;;;222419;1256;25284;-43
2023/07/13 12:37:23;;;;;;;2.60;1.70;;;26.10;58.60;;;;;;222558;1264;24302;-43
2023/07/13 12:42:29;;;;;;;4.50;2.00;;;26.30;58.10;;;;;;222490;1253;22709;-44
2023/07/13 12:47:41;;;;;;;3.10;1.70;;;26.30;58.50;;;;;;222672;1261;23821;-46
2023/07/13 12:53:03;;;;;;;2.60;1.70;;;26.40;58.40;;;;;;222557;1267;24312;-45
2023/07/13 12:58:16;;;;;;;3.60;1.90;;;26.40;58.20;;;;;;222526;1260;22633;-46
2023/07/13 13:03:39;;;;;;;3.90;1.60;;;26.50;58.30;;;;;;222512;1264;25210;-46
2023/07/13 13:08:43;;;;;;;3.40;1.60;;;26.60;58.10;;;;;;222333;1264;26048;-46
2023/07/13 13:13:48;;;;;;;1.90;1.70;;;26.70;57.80;;;;;;222534;1267;22544;-47
2023/07/13 13:18:56;;;;;;;2.70;1.60;;;26.80;57.50;;;;;;222742;1261;22626;-46
2023/07/13 13:24:00;;;;;;;1.60;1.50;;;26.80;58.10;;;;;;222536;1268;22662;-45
2023/07/13 13:29:14;;;;;;;3.00;1.60;;;26.70;57.80;;;;;;222541;1255;22559;-45
2023/07/13 13:34:19;;;;;;;1.90;1.50;;;26.60;58.00;;;;;;222637;1258;26634;-43
2023/07/13 13:39:27;;;;;;;2.20;1.50;;;26.80;57.00;;;;;;222417;1260;22560;-45
2023/07/13 13:44:31;;;;;;;3.40;1.70;;;26.80;56.60;;;;;;222536;1264;24308;-46
2023/07/13 13:49:36;;;;;;;3.60;2.30;;;26.80;57.20;;;;;;222359;1254;22515;-47
2023/07/13 13:54:40;;;;;;;3.60;1.80;;;26.80;57.20;;;;;;222567;1268;22630;-47
2023/07/13 13:59:47;;;;;;;1.50;1.40;;;26.80;57.40;;;;;;222183;1260;23980;-46
2023/07/13 14:05:01;;;;;;;1.60;1.50;;;26.70;57.60;;;;;;222331;1264;22881;-46
2023/07/13 14:10:13;;;;;;;2.40;1.50;;;26.70;57.80;;;;;;222525;1261;24711;-46
2023/07/13 14:15:25;;;;;;;1.90;1.50;;;26.80;57.10;;;;;;222136;1261;234014;-46
2023/07/13 14:20:30;;;;;;;2.70;1.70;;;26.90;57.10;;;;;;222108;1260;25618;-46
2023/07/13 14:25:34;;;;;;;3.30;1.70;;;26.90;57.30;;;;;;222528;1260;24243;-47
2023/07/13 14:30:38;;;;;;;1.50;1.40;;;26.90;57.20;;;;;;222393;1268;22676;-46
2023/07/13 14:35:42;;;;;;;1.60;1.50;;;26.90;57.20;;;;;;222478;1246;22637;-46
2023/07/13 14:40:49;;;;;;;4.40;2.10;;;27.00;57.60;;;;;;222384;1254;22544;-44
2023/07/13 14:45:56;;;;;;;1.70;1.50;;;27.00;57.50;;;;;;222605;1264;22714;-46
2023/07/13 14:51:01;;;;;;;3.20;1.70;;;27.00;57.60;;;;;;222481;1261;25478;-45
2023/07/13 14:56:12;;;;;;;4.10;1.60;;;27.00;56.90;;;;;;222618;1267;24346;-44
2023/07/13 15:01:16;;;;;;;1.70;1.30;;;27.00;55.80;;;;;;222268;1261;22520;-45
2023/07/13 15:06:22;;;;;;;2.80;1.50;;;26.90;56.20;;;;;;222108;1259;22511;-47
2023/07/13 15:11:27;;;;;;;1.50;1.40;;;26.90;56.70;;;;;;222679;1260;22511;-47
2023/07/13 15:16:34;;;;;;;1.70;1.60;;;27.00;56.00;;;;;;222405;1260;25274;-46
2023/07/13 15:21:39;;;;;;;1.90;1.40;;;27.00;56.10;;;;;;222737;1260;23127;-46
2023/07/13 15:26:46;;;;;;;3.10;1.30;;;27.00;55.60;;;;;;222429;1254;22907;-46
2023/07/13 15:31:51;;;;;;;2.70;1.60;;;27.00;54.50;;;;;;222841;1254;22510;-45
2023/07/13 15:36:55;;;;;;;2.20;1.60;;;27.00;54.10;;;;;;222249;1260;22636;-48
2023/07/13 15:42:01;;;;;;;1.70;1.50;;;26.90;54.00;;;;;;222596;1260;23130;-44
2023/07/13 15:47:14;;;;;;;1.90;1.30;;;27.00;54.50;;;;;;222854;1256;22522;-44
2023/07/13 15:52:23;;;;;;;2.10;1.90;;;27.00;53.70;;;;;;222743;1254;22472;-44
2023/07/13 15:57:27;;;;;;;2.60;1.70;;;27.00;54.50;;;;;;222680;1260;22514;-45
2023/07/13 16:02:32;;;;;;;3.70;1.20;;;27.00;54.20;;;;;;222546;1256;22507;-46
2023/07/13 16:07:37;;;;;;;2.10;1.60;;;27.00;54.20;;;;;;222630;1254;22533;-49
2023/07/13 16:12:41;;;;;;;2.30;1.40;;;27.00;54.30;;;;;;222683;1254;25546;-46
2023/07/13 16:17:47;;;;;;;2.10;1.90;;;26.90;54.10;;;;;;222567;1260;22513;-49
2023/07/13 16:22:54;;;;;;;1.70;1.60;;;26.90;54.30;;;;;;222348;1253;24227;-44
2023/07/13 16:28:02;;;;;;;1.80;1.70;;;26.90;53.90;;;;;;222435;1256;22518;-47
2023/07/13 16:33:08;;;;;;;2.40;1.60;;;26.80;53.70;;;;;;222472;1261;22508;-47
2023/07/13 16:38:19;;;;;;;1.60;1.50;;;26.90;53.60;;;;;;222492;1260;24176;-47
2023/07/13 16:43:23;;;;;;;1.60;1.50;;;26.90;53.70;;;;;;222438;1263;24452;-44
2023/07/13 16:48:30;;;;;;;2.00;1.50;;;26.90;54.00;;;;;;222443;1260;22546;-43
2023/07/13 16:53:34;;;;;;;4.50;1.30;;;26.90;53.90;;;;;;222375;1261;24177;-46
2023/07/13 16:58:39;;;;;;;3.10;1.40;;;26.90;53.90;;;;;;222455;1264;25599;-44
2023/07/13 17:03:45;;;;;;;2.90;2.00;;;26.90;54.10;;;;;;222564;1260;22575;-44
2023/07/13 17:08:53;;;;;;;3.50;1.50;;;26.80;55.00;;;;;;222732;1254;22518;-46
2023/07/13 17:13:58;;;;;;;3.80;2.00;;;26.80;54.60;;;;;;222571;1263;24176;-43
2023/07/13 17:19:10;;;;;;;10.40;2.30;;;26.90;54.40;;;;;;222494;1248;22521;-48
2023/07/13 17:24:20;;;;;;;6.40;2.10;;;26.90;55.00;;;;;;222619;1254;24510;-46
2023/07/13 17:29:25;;;;;;;10.90;2.20;;;27.00;54.80;;;;;;222507;1261;22593;-47
2023/07/13 17:34:30;;;;;;;6.20;2.20;;;27.00;55.50;;;;;;222339;1260;22517;-45
2023/07/13 17:39:36;;;;;;;4.50;2.00;;;27.00;55.70;;;;;;222726;1256;22522;-45
2023/07/13 17:44:41;;;;;;;3.10;1.70;;;27.10;55.40;;;;;;222529;1260;23747;-45
2023/07/13 17:49:47;;;;;;;10.50;2.00;;;27.00;55.30;;;;;;222479;1260;22624;-46
2023/07/13 17:54:52;;;;;;;4.80;2.00;;;27.00;55.80;;;;;;222509;1260;22520;-45
2023/07/13 17:59:57;;;;;;;9.70;2.20;;;27.00;56.30;;;;;;222631;1260;22633;-51
2023/07/13 18:05:08;;;;;;;8.50;2.40;;;27.10;56.90;;;;;;222427;1263;22577;-50
2023/07/13 18:10:15;;;;;;;4.90;2.10;;;27.00;56.10;;;;;;222792;1254;25380;-55
2023/07/13 18:15:26;;;;;;;6.00;2.00;;;27.00;56.10;;;;;;222612;1254;25593;-52
2023/07/13 18:20:32;;;;;;;4.40;2.10;;;26.90;56.20;;;;;;222642;1260;24204;-48
2023/07/13 18:25:38;;;;;;;3.00;2.10;;;26.90;56.40;;;;;;222716;1260;22514;-54
2023/07/13 18:30:49;;;;;;;6.30;2.50;;;26.80;56.50;;;;;;222556;1260;25220;-55
2023/07/13 18:35:58;;;;;;;9.50;3.00;;;26.80;56.80;;;;;;222518;1247;22539;-55
2023/07/13 18:41:03;;;;;;;6.00;2.90;;;26.80;56.80;;;;;;222589;1260;22570;-52
2023/07/13 18:46:33;;;;;;;3.70;2.70;;;26.70;56.90;;;;;;222633;1260;25265;-54
2023/07/13 18:51:38;;;;;;;5.20;3.20;;;26.80;57.00;;;;;;222562;1251;23258;-53
2023/07/13 18:56:43;;;;;;;5.60;3.60;;;26.80;56.90;;;;;;222656;1254;23004;-51
2023/07/13 19:01:52;;;;;;;5.10;3.50;;;26.90;57.10;;;;;;222326;1259;25599;-52
2023/07/13 19:06:58;;;;;;;4.20;3.40;;;26.80;56.90;;;;;;222800;1253;22627;-58
2023/07/13 19:12:02;;;;;;;5.00;3.00;;;26.70;57.30;;;;;;222076;1264;22533;-56
2023/07/13 19:17:10;;;;;;;5.10;2.70;;;26.60;57.80;;;;;;221935;1263;24177;-54
2023/07/13 19:22:19;;;;;;;4.50;2.60;;;26.70;57.40;;;;;;221646;1259;23817;-50
2023/07/13 19:27:25;;;;;;;7.70;2.70;;;26.80;57.60;;;;;;221817;1271;24232;-52
2023/07/13 19:32:31;;;;;;;3.70;2.40;;;26.80;58.00;;;;;;221771;1266;22522;-50
2023/07/13 19:37:39;;;;;;;3.90;2.40;;;26.90;58.00;;;;;;222214;1256;24419;-54
2023/07/13 19:42:44;;;;;;;3.80;2.70;;;26.90;57.80;;;;;;221970;1250;24176;-54
2023/07/13 19:47:51;;;;;;;4.80;2.70;;;26.80;57.60;;;;;;221982;1253;22632;-54
2023/07/13 19:52:56;;;;;;;6.00;2.90;;;26.80;57.40;;;;;;222593;1256;26679;-54
2023/07/13 19:58:04;;;;;;;5.00;2.90;;;26.90;57.20;;;;;;222436;1256;24036;-52
2023/07/13 20:03:09;;;;;;;3.10;2.30;;;26.90;57.00;;;;;;222423;1254;22990;-52
2023/07/13 20:08:19;;;;;;;2.70;2.20;;;27.00;57.00;;;;;;222381;1260;22574;-52
2023/07/13 20:13:31;;;;;;;4.40;2.50;;;27.00;57.20;;;;;;222493;1260;24260;-55
2023/07/13 20:18:46;;;;;;;2.90;2.20;;;27.00;57.00;;;;;;222476;1267;23875;-53
2023/07/13 20:23:51;;;;;;;2.80;2.50;;;26.90;57.00;;;;;;222499;1254;22590;-54
2023/07/13 20:28:57;;;;;;;4.70;2.50;;;26.90;57.20;;;;;;222567;1253;22504;-55
2023/07/13 20:34:03;;;;;;;4.70;2.60;;;26.80;57.40;;;;;;222571;1264;22504;-53
2023/07/13 20:39:10;;;;;;;3.90;2.30;;;26.70;57.10;;;;;;222476;1266;22507;-51
2023/07/13 20:44:14;;;;;;;3.00;2.10;;;26.70;57.80;;;;;;222389;1260;22627;-53
2023/07/13 20:49:19;;;;;;;2.80;2.20;;;26.70;57.80;;;;;;222565;1260;22562;-55
2023/07/13 20:54:27;;;;;;;5.00;2.10;;;26.60;57.90;;;;;;222697;1254;22532;-51
2023/07/13 20:59:32;;;;;;;2.90;2.20;;;26.60;57.90;;;;;;222817;1264;24196;-55
2023/07/13 21:04:37;;;;;;;6.60;2.30;;;26.70;57.60;;;;;;222530;1261;22579;-54
2023/07/13 21:09:41;;;;;;;5.40;1.70;;;26.70;57.30;;;;;;222575;1264;23914;-55
2023/07/13 21:14:45;;;;;;;2.60;2.00;;;26.70;57.20;;;;;;222219;1250;22619;-54
2023/07/13 21:19:50;;;;;;;5.10;2.10;;;26.70;57.10;;;;;;222510;1260;26017;-53
2023/07/13 21:24:55;;;;;;;2.50;1.90;;;26.80;57.20;;;;;;222634;1253;26598;-56
2023/07/13 21:29:59;;;;;;;2.40;2.20;;;26.70;57.20;;;;;;222622;1260;22514;-54
2023/07/13 21:35:06;;;;;;;4.00;1.80;;;26.70;57.20;;;;;;222861;1260;24292;-54
2023/07/13 21:40:18;;;;;;;3.70;1.70;;;26.70;57.10;;;;;;222618;1263;23073;-54
2023/07/13 21:45:25;;;;;;;2.90;2.00;;;26.80;57.10;;;;;;222664;1264;24378;-47
2023/07/13 21:50:36;;;;;;;2.30;2.10;;;26.70;57.10;;;;;;222437;1254;22511;-51
2023/07/13 21:55:40;;;;;;;3.50;1.90;;;26.80;56.90;;;;;;222431;1260;25385;-55
2023/07/13 22:00:45;;;;;;;5.30;2.00;;;26.70;57.00;;;;;;222610;1260;24212;-53
2023/07/13 22:05:51;;;;;;;6.00;2.10;;;26.70;56.90;;;;;;222661;1250;22538;-53
2023/07/13 22:10:58;;;;;;;2.60;2.30;;;26.70;57.20;;;;;;222585;1244;22563;-53
2023/07/13 22:16:03;;;;;;;3.70;2.00;;;26.60;56.80;;;;;;223327;1260;24212;-53
2023/07/13 22:21:11;;;;;;;3.40;1.70;;;26.60;56.80;;;;;;222486;1254;23886;-54
2023/07/13 22:26:31;;;;;;;2.70;2.10;;;26.60;56.80;;;;;;222424;1260;22625;-53
2023/07/13 22:31:35;;;;;;;4.40;2.40;;;26.60;56.80;;;;;;225426;1257;22635;-50
2023/07/13 22:36:40;;;;;;;11.10;2.40;;;26.80;57.10;;;;;;223575;1261;22623;-53
2023/07/13 22:41:45;;;;;;;3.90;1.90;;;26.60;58.10;;;;;;222507;1254;23954;-53
2023/07/13 22:46:54;;;;;;;2.30;2.00;;;26.30;56.30;;;;;;222650;1247;24266;-54
2023/07/13 22:52:02;;;;;;;2.90;1.90;;;26.20;57.90;;;;;;222603;1256;25315;-54
2023/07/13 22:57:07;;;;;;;6.60;1.80;;;26.10;57.30;;;;;;222717;1247;25236;-59
2023/07/13 23:02:17;;;;;;;5.60;2.40;;;26.10;60.00;;;;;;222596;1257;25382;-55
2023/07/13 23:07:24;;;;;;;6.10;2.30;;;26.00;60.60;;;;;;222549;1250;24164;-54
2023/07/13 23:12:30;;;;;;;5.60;1.90;;;26.00;61.30;;;;;;222503;1264;24242;-51
2023/07/13 23:17:35;;;;;;;4.40;2.10;;;26.00;61.70;;;;;;222715;1244;22625;-54
2023/07/13 23:22:40;;;;;;;5.70;2.30;;;26.00;61.90;;;;;;222144;1257;22532;-52
2023/07/13 23:27:44;;;;;;;5.90;1.60;;;26.00;62.10;;;;;;226541;1247;22690;-52
2023/07/13 23:32:48;;;;;;;3.90;1.90;;;26.00;61.70;;;;;;223957;1244;24224;-53
2023/07/13 23:37:52;;;;;;;3.40;1.90;;;26.00;62.10;;;;;;222583;1254;25592;-55
2023/07/13 23:42:56;;;;;;;2.60;1.70;;;26.00;62.40;;;;;;222150;1252;22666;-58
2023/07/13 23:48:02;;;;;;;4.50;1.60;;;25.90;62.30;;;;;;222492;1247;24348;-54
2023/07/13 23:53:13;;;;;;;2.20;2.10;;;25.80;62.40;;;;;;222503;1260;22682;-53
2023/07/13 23:58:17;;;;;;;1.90;1.80;;;25.80;62.10;;;;;;222450;1248;24227;-53
